sensor_id;sensor_type;location;lat;lon;timestamp;P1;durP1;ratioP1;P2;durP2;ratioP2
30818;SDS011;17546;42.674;23.284;2023-05-10T00:00:37;9.13;;;6.05;;
30818;SDS011;17546;42.674;23.284;2023-05-10T00:03:03;6.95;;;5.95;;
30818;SDS011;17546;42.674;23.284;2023-05-10T00:05:30;8.35;;;6.07;;
30818;SDS011;17546;42.674;23.284;2023-05-10T00:07:56;9.70;;;6.30;;
30818;SDS011;17546;42.674;23.284;2023-05-10T00:10:22;8.27;;;6.47;;
30818;SDS011;17546;42.674;23.284;2023-05-10T00:12:47;8.27;;;6.53;;
30818;SDS011;17546;42.674;23.284;2023-05-10T00:15:12;10.27;;;6.93;;
30818;SDS011;17546;42.674;23.284;2023-05-10T00:17:38;7.28;;;5.72;;
30818;SDS011;17546;42.674;23.284;2023-05-10T00:20:03;9.65;;;6.43;;
30818;SDS011;17546;42.674;23.284;2023-05-10T00:22:30;9.30;;;6.53;;
30818;SDS011;17546;42.674;23.284;2023-05-10T00:24:56;8.43;;;5.93;;
30818;SDS011;17546;42.674;23.284;2023-05-10T00:27:22;9.20;;;6.35;;
30818;SDS011;17546;42.674;23.284;2023-05-10T00:29:48;8.35;;;6.30;;
30818;SDS011;17546;42.674;23.284;2023-05-10T00:32:13;7.03;;;5.75;;
30818;SDS011;17546;42.674;23.284;2023-05-10T00:34:44;8.23;;;6.50;;
30818;SDS011;17546;42.674;23.284;2023-05-10T00:37:09;7.50;;;6.38;;
30818;SDS011;17546;42.674;23.284;2023-05-10T00:39:34;10.02;;;6.28;;
30818;SDS011;17546;42.674;23.284;2023-05-10T00:42:01;10.18;;;6.07;;
30818;SDS011;17546;42.674;23.284;2023-05-10T00:44:26;13.98;;;6.45;;
30818;SDS011;17546;42.674;23.284;2023-05-10T00:46:53;7.15;;;6.25;;
30818;SDS011;17546;42.674;23.284;2023-05-10T00:49:18;16.27;;;6.15;;
30818;SDS011;17546;42.674;23.284;2023-05-10T00:51:45;8.85;;;6.40;;
30818;SDS011;17546;42.674;23.284;2023-05-10T00:54:12;9.02;;;6.10;;
30818;SDS011;17546;42.674;23.284;2023-05-10T00:56:38;7.60;;;6.60;;
30818;SDS011;17546;42.674;23.284;2023-05-10T00:59:05;14.43;;;7.30;;
30818;SDS011;17546;42.674;23.284;2023-05-10T01:01:30;17.55;;;6.63;;
30818;SDS011;17546;42.674;23.284;2023-05-10T01:03:56;11.15;;;6.68;;
30818;SDS011;17546;42.674;23.284;2023-05-10T01:06:23;9.25;;;6.70;;
30818;SDS011;17546;42.674;23.284;2023-05-10T01:08:48;8.77;;;6.40;;
30818;SDS011;17546;42.674;23.284;2023-05-10T01:11:14;12.82;;;7.00;;
30818;SDS011;17546;42.674;23.284;2023-05-10T01:13:40;9.18;;;7.07;;
30818;SDS011;17546;42.674;23.284;2023-05-10T01:16:08;9.07;;;7.47;;
30818;SDS011;17546;42.674;23.284;2023-05-10T01:18:36;10.73;;;7.70;;
30818;SDS011;17546;42.674;23.284;2023-05-10T01:34:51;10.57;;;7.78;;
30818;SDS011;17546;42.674;23.284;2023-05-10T01:37:36;9.20;;;7.50;;
30818;SDS011;17546;42.674;23.284;2023-05-10T01:42:51;7.95;;;6.28;;
30818;SDS011;17546;42.674;23.284;2023-05-10T01:48:22;7.95;;;6.28;;
30818;SDS011;17546;42.674;23.284;2023-05-10T01:50:49;13.73;;;6.30;;
30818;SDS011;17546;42.674;23.284;2023-05-10T01:53:17;10.25;;;7.28;;
30818;SDS011;17546;42.674;23.284;2023-05-10T01:55:46;6.25;;;5.57;;
30818;SDS011;17546;42.674;23.284;2023-05-10T01:58:16;6.40;;;5.40;;
30818;SDS011;17546;42.674;23.284;2023-05-10T02:00:46;8.73;;;5.22;;
30818;SDS011;17546;42.674;23.284;2023-05-10T02:03:14;9.30;;;5.28;;
30818;SDS011;17546;42.674;23.284;2023-05-10T02:05:41;7.55;;;5.35;;
30818;SDS011;17546;42.674;23.284;2023-05-10T02:08:10;7.45;;;5.03;;
30818;SDS011;17546;42.674;23.284;2023-05-10T02:10:37;7.53;;;5.32;;
30818;SDS011;17546;42.674;23.284;2023-05-10T02:13:05;5.07;;;4.13;;
30818;SDS011;17546;42.674;23.284;2023-05-10T02:15:32;5.18;;;4.10;;
30818;SDS011;17546;42.674;23.284;2023-05-10T02:17:58;6.47;;;5.30;;
30818;SDS011;17546;42.674;23.284;2023-05-10T02:20:25;7.60;;;4.65;;
30818;SDS011;17546;42.674;23.284;2023-05-10T02:22:52;5.50;;;4.40;;
30818;SDS011;17546;42.674;23.284;2023-05-10T02:25:20;6.10;;;4.70;;
30818;SDS011;17546;42.674;23.284;2023-05-10T02:27:47;8.65;;;4.93;;
30818;SDS011;17546;42.674;23.284;2023-05-10T02:30:14;9.30;;;5.22;;
30818;SDS011;17546;42.674;23.284;2023-05-10T02:32:40;5.63;;;4.82;;
30818;SDS011;17546;42.674;23.284;2023-05-10T02:35:08;7.53;;;4.60;;
30818;SDS011;17546;42.674;23.284;2023-05-10T02:37:37;8.70;;;5.57;;
30818;SDS011;17546;42.674;23.284;2023-05-10T02:40:05;6.40;;;5.00;;
30818;SDS011;17546;42.674;23.284;2023-05-10T02:42:35;7.75;;;4.72;;
30818;SDS011;17546;42.674;23.284;2023-05-10T02:45:04;8.07;;;5.22;;
30818;SDS011;17546;42.674;23.284;2023-05-10T02:47:33;13.48;;;5.60;;
30818;SDS011;17546;42.674;23.284;2023-05-10T02:49:59;12.32;;;5.50;;
30818;SDS011;17546;42.674;23.284;2023-05-10T02:52:27;15.82;;;5.25;;
30818;SDS011;17546;42.674;23.284;2023-05-10T02:54:56;8.57;;;5.25;;
30818;SDS011;17546;42.674;23.284;2023-05-10T02:57:26;8.00;;;5.70;;
30818;SDS011;17546;42.674;23.284;2023-05-10T02:59:55;8.90;;;5.53;;
30818;SDS011;17546;42.674;23.284;2023-05-10T03:02:20;8.25;;;5.53;;
30818;SDS011;17546;42.674;23.284;2023-05-10T03:04:46;8.80;;;6.15;;
30818;SDS011;17546;42.674;23.284;2023-05-10T03:07:13;7.53;;;5.78;;
30818;SDS011;17546;42.674;23.284;2023-05-10T03:09:38;8.27;;;6.07;;
30818;SDS011;17546;42.674;23.284;2023-05-10T03:12:11;12.77;;;6.13;;
30818;SDS011;17546;42.674;23.284;2023-05-10T03:14:53;10.38;;;6.18;;
30818;SDS011;17546;42.674;23.284;2023-05-10T03:20:11;9.52;;;5.80;;
30818;SDS011;17546;42.674;23.284;2023-05-10T03:22:43;7.57;;;5.63;;
30818;SDS011;17546;42.674;23.284;2023-05-10T03:25:12;10.57;;;5.75;;
30818;SDS011;17546;42.674;23.284;2023-05-10T03:27:41;10.65;;;5.97;;
30818;SDS011;17546;42.674;23.284;2023-05-10T03:30:11;10.80;;;5.32;;
30818;SDS011;17546;42.674;23.284;2023-05-10T03:32:38;11.23;;;6.03;;
30818;SDS011;17546;42.674;23.284;2023-05-10T03:35:07;10.43;;;5.80;;
30818;SDS011;17546;42.674;23.284;2023-05-10T03:37:33;11.40;;;6.30;;
30818;SDS011;17546;42.674;23.284;2023-05-10T03:39:59;10.43;;;5.72;;
30818;SDS011;17546;42.674;23.284;2023-05-10T03:42:30;12.98;;;6.10;;
30818;SDS011;17546;42.674;23.284;2023-05-10T03:44:55;8.65;;;5.63;;
30818;SDS011;17546;42.674;23.284;2023-05-10T03:47:21;7.38;;;5.63;;
30818;SDS011;17546;42.674;23.284;2023-05-10T03:49:49;11.18;;;6.43;;
30818;SDS011;17546;42.674;23.284;2023-05-10T03:52:14;9.05;;;5.53;;
30818;SDS011;17546;42.674;23.284;2023-05-10T03:54:39;11.57;;;5.30;;
30818;SDS011;17546;42.674;23.284;2023-05-10T03:57:05;7.97;;;5.50;;
30818;SDS011;17546;42.674;23.284;2023-05-10T03:59:30;16.23;;;6.75;;
30818;SDS011;17546;42.674;23.284;2023-05-10T04:01:56;9.27;;;5.72;;
30818;SDS011;17546;42.674;23.284;2023-05-10T04:04:21;8.32;;;5.30;;
30818;SDS011;17546;42.674;23.284;2023-05-10T04:06:48;10.65;;;5.70;;
30818;SDS011;17546;42.674;23.284;2023-05-10T04:09:14;11.13;;;5.05;;
30818;SDS011;17546;42.674;23.284;2023-05-10T04:11:41;13.20;;;5.80;;
30818;SDS011;17546;42.674;23.284;2023-05-10T04:14:06;9.90;;;5.28;;
30818;SDS011;17546;42.674;23.284;2023-05-10T04:16:32;9.70;;;5.75;;
30818;SDS011;17546;42.674;23.284;2023-05-10T04:18:57;14.65;;;5.15;;
30818;SDS011;17546;42.674;23.284;2023-05-10T04:21:23;12.00;;;5.30;;
30818;SDS011;17546;42.674;23.284;2023-05-10T04:23:48;8.75;;;5.78;;
30818;SDS011;17546;42.674;23.284;2023-05-10T04:26:15;9.85;;;5.32;;
30818;SDS011;17546;42.674;23.284;2023-05-10T04:28:40;7.30;;;5.00;;
30818;SDS011;17546;42.674;23.284;2023-05-10T04:31:06;9.02;;;5.80;;
30818;SDS011;17546;42.674;23.284;2023-05-10T04:33:33;10.15;;;5.57;;
30818;SDS011;17546;42.674;23.284;2023-05-10T04:35:59;13.32;;;5.57;;
30818;SDS011;17546;42.674;23.284;2023-05-10T04:38:27;8.35;;;5.53;;
30818;SDS011;17546;42.674;23.284;2023-05-10T04:40:53;14.40;;;6.22;;
30818;SDS011;17546;42.674;23.284;2023-05-10T04:43:19;11.65;;;5.70;;
30818;SDS011;17546;42.674;23.284;2023-05-10T04:45:44;8.38;;;5.57;;
30818;SDS011;17546;42.674;23.284;2023-05-10T04:48:10;9.50;;;6.50;;
30818;SDS011;17546;42.674;23.284;2023-05-10T04:50:35;10.48;;;5.70;;
30818;SDS011;17546;42.674;23.284;2023-05-10T04:53:01;8.55;;;6.05;;
30818;SDS011;17546;42.674;23.284;2023-05-10T04:55:27;12.30;;;6.40;;
30818;SDS011;17546;42.674;23.284;2023-05-10T04:57:52;10.65;;;6.35;;
30818;SDS011;17546;42.674;23.284;2023-05-10T05:00:20;11.68;;;6.35;;
30818;SDS011;17546;42.674;23.284;2023-05-10T05:02:45;12.30;;;6.20;;
30818;SDS011;17546;42.674;23.284;2023-05-10T05:05:12;11.15;;;6.35;;
30818;SDS011;17546;42.674;23.284;2023-05-10T05:07:37;9.10;;;6.22;;
30818;SDS011;17546;42.674;23.284;2023-05-10T05:10:06;9.73;;;5.68;;
30818;SDS011;17546;42.674;23.284;2023-05-10T05:12:33;8.48;;;6.03;;
30818;SDS011;17546;42.674;23.284;2023-05-10T05:14:59;11.35;;;6.82;;
30818;SDS011;17546;42.674;23.284;2023-05-10T05:17:24;14.60;;;6.53;;
30818;SDS011;17546;42.674;23.284;2023-05-10T05:19:50;11.20;;;6.47;;
30818;SDS011;17546;42.674;23.284;2023-05-10T05:22:15;10.05;;;6.32;;
30818;SDS011;17546;42.674;23.284;2023-05-10T05:24:48;12.02;;;5.88;;
30818;SDS011;17546;42.674;23.284;2023-05-10T05:27:13;15.73;;;6.70;;
30818;SDS011;17546;42.674;23.284;2023-05-10T05:29:39;11.38;;;7.25;;
30818;SDS011;17546;42.674;23.284;2023-05-10T05:32:05;12.25;;;7.03;;
30818;SDS011;17546;42.674;23.284;2023-05-10T05:34:31;13.32;;;7.15;;
30818;SDS011;17546;42.674;23.284;2023-05-10T05:36:56;16.02;;;7.55;;
30818;SDS011;17546;42.674;23.284;2023-05-10T05:39:22;10.70;;;7.63;;
30818;SDS011;17546;42.674;23.284;2023-05-10T05:41:47;14.98;;;7.78;;
30818;SDS011;17546;42.674;23.284;2023-05-10T05:44:12;12.57;;;7.75;;
30818;SDS011;17546;42.674;23.284;2023-05-10T05:46:38;13.48;;;8.52;;
30818;SDS011;17546;42.674;23.284;2023-05-10T05:49:03;20.48;;;8.90;;
30818;SDS011;17546;42.674;23.284;2023-05-10T05:51:31;14.68;;;7.90;;
30818;SDS011;17546;42.674;23.284;2023-05-10T05:53:56;13.48;;;8.07;;
30818;SDS011;17546;42.674;23.284;2023-05-10T05:56:21;17.35;;;7.85;;
30818;SDS011;17546;42.674;23.284;2023-05-10T05:58:52;13.25;;;8.95;;
30818;SDS011;17546;42.674;23.284;2023-05-10T06:01:18;15.98;;;8.80;;
30818;SDS011;17546;42.674;23.284;2023-05-10T06:03:44;13.80;;;9.50;;
30818;SDS011;17546;42.674;23.284;2023-05-10T06:06:09;16.42;;;9.40;;
30818;SDS011;17546;42.674;23.284;2023-05-10T06:08:35;14.65;;;9.10;;
30818;SDS011;17546;42.674;23.284;2023-05-10T06:11:00;15.95;;;10.40;;
30818;SDS011;17546;42.674;23.284;2023-05-10T06:13:26;22.65;;;12.50;;
30818;SDS011;17546;42.674;23.284;2023-05-10T06:15:57;19.70;;;10.32;;
30818;SDS011;17546;42.674;23.284;2023-05-10T06:18:24;21.23;;;10.32;;
30818;SDS011;17546;42.674;23.284;2023-05-10T06:20:50;16.10;;;10.45;;
30818;SDS011;17546;42.674;23.284;2023-05-10T06:23:21;16.95;;;9.57;;
30818;SDS011;17546;42.674;23.284;2023-05-10T06:25:48;18.25;;;11.18;;
30818;SDS011;17546;42.674;23.284;2023-05-10T06:28:13;14.07;;;9.93;;
30818;SDS011;17546;42.674;23.284;2023-05-10T06:30:42;18.48;;;10.05;;
30818;SDS011;17546;42.674;23.284;2023-05-10T06:33:07;18.13;;;11.70;;
30818;SDS011;17546;42.674;23.284;2023-05-10T06:35:33;18.98;;;10.60;;
30818;SDS011;17546;42.674;23.284;2023-05-10T06:37:58;16.65;;;9.52;;
30818;SDS011;17546;42.674;23.284;2023-05-10T06:40:25;14.75;;;10.55;;
30818;SDS011;17546;42.674;23.284;2023-05-10T06:42:50;12.30;;;8.85;;
30818;SDS011;17546;42.674;23.284;2023-05-10T06:45:20;16.52;;;10.20;;
30818;SDS011;17546;42.674;23.284;2023-05-10T06:47:45;18.05;;;10.30;;
30818;SDS011;17546;42.674;23.284;2023-05-10T06:50:11;15.93;;;9.82;;
30818;SDS011;17546;42.674;23.284;2023-05-10T06:52:40;17.73;;;9.77;;
30818;SDS011;17546;42.674;23.284;2023-05-10T06:55:05;14.18;;;9.55;;
30818;SDS011;17546;42.674;23.284;2023-05-10T06:57:31;18.13;;;10.27;;
30818;SDS011;17546;42.674;23.284;2023-05-10T06:59:57;17.63;;;10.18;;
30818;SDS011;17546;42.674;23.284;2023-05-10T07:02:26;16.77;;;10.40;;
30818;SDS011;17546;42.674;23.284;2023-05-10T07:04:55;16.70;;;10.00;;
30818;SDS011;17546;42.674;23.284;2023-05-10T07:07:20;18.90;;;10.43;;
30818;SDS011;17546;42.674;23.284;2023-05-10T07:09:46;16.38;;;10.98;;
30818;SDS011;17546;42.674;23.284;2023-05-10T07:12:11;20.48;;;10.85;;
30818;SDS011;17546;42.674;23.284;2023-05-10T07:14:36;16.75;;;9.82;;
30818;SDS011;17546;42.674;23.284;2023-05-10T07:17:02;16.00;;;11.15;;
30818;SDS011;17546;42.674;23.284;2023-05-10T07:19:27;18.02;;;10.57;;
30818;SDS011;17546;42.674;23.284;2023-05-10T07:21:56;21.98;;;11.45;;
30818;SDS011;17546;42.674;23.284;2023-05-10T07:24:21;18.77;;;10.10;;
30818;SDS011;17546;42.674;23.284;2023-05-10T07:26:47;19.58;;;11.18;;
30818;SDS011;17546;42.674;23.284;2023-05-10T07:29:12;18.88;;;11.40;;
30818;SDS011;17546;42.674;23.284;2023-05-10T07:31:38;17.33;;;10.32;;
30818;SDS011;17546;42.674;23.284;2023-05-10T07:34:03;16.98;;;9.90;;
30818;SDS011;17546;42.674;23.284;2023-05-10T07:36:28;18.02;;;9.68;;
30818;SDS011;17546;42.674;23.284;2023-05-10T07:39:09;12.57;;;9.75;;
30818;SDS011;17546;42.674;23.284;2023-05-10T07:41:34;25.45;;;11.38;;
30818;SDS011;17546;42.674;23.284;2023-05-10T07:44:00;21.08;;;11.35;;
30818;SDS011;17546;42.674;23.284;2023-05-10T07:46:26;16.55;;;11.20;;
30818;SDS011;17546;42.674;23.284;2023-05-10T07:48:51;19.27;;;11.13;;
30818;SDS011;17546;42.674;23.284;2023-05-10T07:51:16;16.75;;;11.50;;
30818;SDS011;17546;42.674;23.284;2023-05-10T07:53:42;19.15;;;11.50;;
30818;SDS011;17546;42.674;23.284;2023-05-10T07:58:52;17.95;;;10.93;;
30818;SDS011;17546;42.674;23.284;2023-05-10T08:01:19;20.40;;;11.45;;
30818;SDS011;17546;42.674;23.284;2023-05-10T08:03:44;24.17;;;11.75;;
30818;SDS011;17546;42.674;23.284;2023-05-10T08:06:10;23.95;;;11.25;;
30818;SDS011;17546;42.674;23.284;2023-05-10T08:08:36;19.00;;;10.25;;
30818;SDS011;17546;42.674;23.284;2023-05-10T08:11:01;18.27;;;11.75;;
30818;SDS011;17546;42.674;23.284;2023-05-10T08:13:27;24.67;;;11.10;;
30818;SDS011;17546;42.674;23.284;2023-05-10T08:15:52;22.27;;;12.57;;
30818;SDS011;17546;42.674;23.284;2023-05-10T08:18:23;16.80;;;11.77;;
30818;SDS011;17546;42.674;23.284;2023-05-10T08:20:48;17.52;;;11.10;;
30818;SDS011;17546;42.674;23.284;2023-05-10T08:23:14;18.38;;;10.38;;
30818;SDS011;17546;42.674;23.284;2023-05-10T08:25:47;22.75;;;10.85;;
30818;SDS011;17546;42.674;23.284;2023-05-10T08:28:12;17.35;;;11.00;;
30818;SDS011;17546;42.674;23.284;2023-05-10T08:30:37;17.33;;;11.60;;
30818;SDS011;17546;42.674;23.284;2023-05-10T08:33:03;19.40;;;12.00;;
30818;SDS011;17546;42.674;23.284;2023-05-10T08:35:28;23.95;;;12.75;;
30818;SDS011;17546;42.674;23.284;2023-05-10T08:37:55;18.10;;;11.50;;
30818;SDS011;17546;42.674;23.284;2023-05-10T08:40:20;22.70;;;11.45;;
30818;SDS011;17546;42.674;23.284;2023-05-10T08:43:07;16.38;;;11.77;;
30818;SDS011;17546;42.674;23.284;2023-05-10T08:45:33;15.32;;;10.73;;
30818;SDS011;17546;42.674;23.284;2023-05-10T08:48:02;18.65;;;12.25;;
30818;SDS011;17546;42.674;23.284;2023-05-10T08:50:36;18.38;;;10.60;;
30818;SDS011;17546;42.674;23.284;2023-05-10T08:53:04;20.20;;;11.13;;
30818;SDS011;17546;42.674;23.284;2023-05-10T08:55:34;14.48;;;10.70;;
30818;SDS011;17546;42.674;23.284;2023-05-10T08:58:01;13.07;;;9.27;;
30818;SDS011;17546;42.674;23.284;2023-05-10T09:00:30;23.08;;;11.07;;
30818;SDS011;17546;42.674;23.284;2023-05-10T09:02:55;17.65;;;10.15;;
30818;SDS011;17546;42.674;23.284;2023-05-10T09:05:22;13.13;;;9.40;;
30818;SDS011;17546;42.674;23.284;2023-05-10T09:07:48;16.98;;;9.90;;
30818;SDS011;17546;42.674;23.284;2023-05-10T09:10:13;16.45;;;10.35;;
30818;SDS011;17546;42.674;23.284;2023-05-10T09:12:40;20.83;;;11.35;;
30818;SDS011;17546;42.674;23.284;2023-05-10T09:15:06;16.92;;;10.57;;
30818;SDS011;17546;42.674;23.284;2023-05-10T09:17:34;21.95;;;10.95;;
30818;SDS011;17546;42.674;23.284;2023-05-10T09:20:00;23.88;;;12.20;;
30818;SDS011;17546;42.674;23.284;2023-05-10T09:22:26;15.98;;;10.80;;
30818;SDS011;17546;42.674;23.284;2023-05-10T09:25:11;17.23;;;11.20;;
30818;SDS011;17546;42.674;23.284;2023-05-10T09:27:39;18.73;;;12.30;;
30818;SDS011;17546;42.674;23.284;2023-05-10T09:30:06;15.45;;;11.52;;
30818;SDS011;17546;42.674;23.284;2023-05-10T09:32:51;18.85;;;11.73;;
30818;SDS011;17546;42.674;23.284;2023-05-10T09:35:18;18.58;;;11.35;;
30818;SDS011;17546;42.674;23.284;2023-05-10T09:37:52;15.75;;;10.52;;
30818;SDS011;17546;42.674;23.284;2023-05-10T09:40:20;28.40;;;11.93;;
30818;SDS011;17546;42.674;23.284;2023-05-10T09:42:54;14.45;;;10.27;;
30818;SDS011;17546;42.674;23.284;2023-05-10T09:45:22;14.50;;;10.32;;
30818;SDS011;17546;42.674;23.284;2023-05-10T09:47:48;19.60;;;11.40;;
30818;SDS011;17546;42.674;23.284;2023-05-10T09:50:13;20.88;;;13.50;;
30818;SDS011;17546;42.674;23.284;2023-05-10T09:52:46;21.17;;;9.85;;
30818;SDS011;17546;42.674;23.284;2023-05-10T09:55:12;17.02;;;11.45;;
30818;SDS011;17546;42.674;23.284;2023-05-10T09:57:40;16.33;;;10.07;;
30818;SDS011;17546;42.674;23.284;2023-05-10T10:00:06;16.95;;;10.07;;
30818;SDS011;17546;42.674;23.284;2023-05-10T10:02:32;18.60;;;10.52;;
30818;SDS011;17546;42.674;23.284;2023-05-10T10:04:59;19.45;;;11.02;;
30818;SDS011;17546;42.674;23.284;2023-05-10T10:07:27;22.02;;;10.25;;
30818;SDS011;17546;42.674;23.284;2023-05-10T10:09:53;24.02;;;10.48;;
30818;SDS011;17546;42.674;23.284;2023-05-10T10:12:18;13.88;;;10.55;;
30818;SDS011;17546;42.674;23.284;2023-05-10T10:14:45;19.60;;;10.52;;
30818;SDS011;17546;42.674;23.284;2023-05-10T10:17:12;18.23;;;10.00;;
30818;SDS011;17546;42.674;23.284;2023-05-10T10:19:38;19.92;;;11.15;;
30818;SDS011;17546;42.674;23.284;2023-05-10T10:22:04;21.05;;;10.40;;
30818;SDS011;17546;42.674;23.284;2023-05-10T10:24:30;17.38;;;10.10;;
30818;SDS011;17546;42.674;23.284;2023-05-10T10:26:57;13.80;;;8.52;;
30818;SDS011;17546;42.674;23.284;2023-05-10T10:29:59;17.17;;;9.02;;
30818;SDS011;17546;42.674;23.284;2023-05-10T10:32:42;16.88;;;10.00;;
30818;SDS011;17546;42.674;23.284;2023-05-10T10:35:27;19.10;;;9.23;;
30818;SDS011;17546;42.674;23.284;2023-05-10T10:37:54;18.38;;;9.45;;
30818;SDS011;17546;42.674;23.284;2023-05-10T10:40:39;17.25;;;8.98;;
30818;SDS011;17546;42.674;23.284;2023-05-10T10:46:10;18.87;;;8.90;;
30818;SDS011;17546;42.674;23.284;2023-05-10T10:52:12;16.42;;;8.73;;
30818;SDS011;17546;42.674;23.284;2023-05-10T10:57:23;19.60;;;7.40;;
30818;SDS011;17546;42.674;23.284;2023-05-10T10:59:51;16.40;;;7.40;;
30818;SDS011;17546;42.674;23.284;2023-05-10T11:05:33;11.90;;;8.07;;
30818;SDS011;17546;42.674;23.284;2023-05-10T11:08:06;14.88;;;8.05;;
30818;SDS011;17546;42.674;23.284;2023-05-10T11:10:32;17.92;;;8.23;;
30818;SDS011;17546;42.674;23.284;2023-05-10T11:13:01;18.02;;;8.32;;
30818;SDS011;17546;42.674;23.284;2023-05-10T11:15:34;14.52;;;7.43;;
30818;SDS011;17546;42.674;23.284;2023-05-10T11:18:19;10.75;;;7.47;;
30818;SDS011;17546;42.674;23.284;2023-05-10T11:20:51;12.10;;;8.35;;
30818;SDS011;17546;42.674;23.284;2023-05-10T11:23:20;17.55;;;8.27;;
30818;SDS011;17546;42.674;23.284;2023-05-10T11:25:46;12.45;;;7.05;;
30818;SDS011;17546;42.674;23.284;2023-05-10T11:28:13;17.58;;;8.50;;
30818;SDS011;17546;42.674;23.284;2023-05-10T11:30:40;12.88;;;7.65;;
30818;SDS011;17546;42.674;23.284;2023-05-10T11:33:08;12.38;;;7.70;;
30818;SDS011;17546;42.674;23.284;2023-05-10T11:35:37;12.82;;;7.07;;
30818;SDS011;17546;42.674;23.284;2023-05-10T11:38:17;12.57;;;7.97;;
30818;SDS011;17546;42.674;23.284;2023-05-10T11:40:42;18.30;;;8.68;;
30818;SDS011;17546;42.674;23.284;2023-05-10T11:43:08;18.73;;;8.18;;
30818;SDS011;17546;42.674;23.284;2023-05-10T11:45:35;14.13;;;7.60;;
30818;SDS011;17546;42.674;23.284;2023-05-10T11:48:01;19.10;;;8.00;;
30818;SDS011;17546;42.674;23.284;2023-05-10T11:50:27;16.60;;;6.82;;
30818;SDS011;17546;42.674;23.284;2023-05-10T11:52:54;15.82;;;8.77;;
30818;SDS011;17546;42.674;23.284;2023-05-10T11:55:20;17.55;;;7.95;;
30818;SDS011;17546;42.674;23.284;2023-05-10T11:57:46;11.98;;;7.22;;
30818;SDS011;17546;42.674;23.284;2023-05-10T12:00:12;17.67;;;7.75;;
30818;SDS011;17546;42.674;23.284;2023-05-10T12:02:38;13.52;;;7.65;;
30818;SDS011;17546;42.674;23.284;2023-05-10T12:05:04;18.40;;;7.85;;
30818;SDS011;17546;42.674;23.284;2023-05-10T12:07:32;17.02;;;8.27;;
30818;SDS011;17546;42.674;23.284;2023-05-10T12:12:46;14.88;;;8.23;;
30818;SDS011;17546;42.674;23.284;2023-05-10T12:15:22;14.07;;;8.80;;
30818;SDS011;17546;42.674;23.284;2023-05-10T12:17:48;13.82;;;9.10;;
30818;SDS011;17546;42.674;23.284;2023-05-10T12:22:49;21.02;;;9.45;;
30818;SDS011;17546;42.674;23.284;2023-05-10T12:25:15;14.77;;;10.02;;
30818;SDS011;17546;42.674;23.284;2023-05-10T12:27:47;20.02;;;9.77;;
30818;SDS011;17546;42.674;23.284;2023-05-10T12:30:17;16.08;;;9.35;;
30818;SDS011;17546;42.674;23.284;2023-05-10T12:32:47;17.60;;;9.57;;
30818;SDS011;17546;42.674;23.284;2023-05-10T12:35:15;19.02;;;8.93;;
30818;SDS011;17546;42.674;23.284;2023-05-10T12:37:42;18.00;;;9.27;;
30818;SDS011;17546;42.674;23.284;2023-05-10T12:40:08;13.20;;;8.30;;
30818;SDS011;17546;42.674;23.284;2023-05-10T12:42:36;17.33;;;8.68;;
30818;SDS011;17546;42.674;23.284;2023-05-10T12:45:03;14.85;;;9.10;;
30818;SDS011;17546;42.674;23.284;2023-05-10T12:47:30;14.02;;;9.68;;
30818;SDS011;17546;42.674;23.284;2023-05-10T12:49:55;18.95;;;9.98;;
30818;SDS011;17546;42.674;23.284;2023-05-10T12:52:21;19.15;;;11.88;;
30818;SDS011;17546;42.674;23.284;2023-05-10T12:54:47;22.10;;;10.63;;
30818;SDS011;17546;42.674;23.284;2023-05-10T12:57:12;18.15;;;10.82;;
30818;SDS011;17546;42.674;23.284;2023-05-10T12:59:38;20.55;;;9.18;;
30818;SDS011;17546;42.674;23.284;2023-05-10T13:02:03;16.75;;;9.07;;
30818;SDS011;17546;42.674;23.284;2023-05-10T13:04:29;20.67;;;11.32;;
30818;SDS011;17546;42.674;23.284;2023-05-10T13:06:55;19.92;;;10.07;;
30818;SDS011;17546;42.674;23.284;2023-05-10T13:09:27;19.00;;;9.30;;
30818;SDS011;17546;42.674;23.284;2023-05-10T13:12:00;19.55;;;9.93;;
30818;SDS011;17546;42.674;23.284;2023-05-10T13:14:25;19.73;;;9.82;;
30818;SDS011;17546;42.674;23.284;2023-05-10T13:16:51;17.85;;;10.13;;
30818;SDS011;17546;42.674;23.284;2023-05-10T13:19:17;24.88;;;12.40;;
30818;SDS011;17546;42.674;23.284;2023-05-10T13:21:42;13.60;;;9.75;;
30818;SDS011;17546;42.674;23.284;2023-05-10T13:24:09;18.55;;;9.32;;
30818;SDS011;17546;42.674;23.284;2023-05-10T13:26:38;19.27;;;9.07;;
30818;SDS011;17546;42.674;23.284;2023-05-10T13:29:07;12.55;;;8.80;;
30818;SDS011;17546;42.674;23.284;2023-05-10T13:31:33;17.20;;;9.07;;
30818;SDS011;17546;42.674;23.284;2023-05-10T13:33:58;15.05;;;8.93;;
30818;SDS011;17546;42.674;23.284;2023-05-10T13:36:24;16.65;;;9.90;;
30818;SDS011;17546;42.674;23.284;2023-05-10T13:38:49;20.92;;;10.25;;
30818;SDS011;17546;42.674;23.284;2023-05-10T13:41:15;18.88;;;9.48;;
30818;SDS011;17546;42.674;23.284;2023-05-10T13:43:40;14.82;;;8.98;;
30818;SDS011;17546;42.674;23.284;2023-05-10T13:46:05;17.88;;;9.25;;
30818;SDS011;17546;42.674;23.284;2023-05-10T13:48:31;23.48;;;9.20;;
30818;SDS011;17546;42.674;23.284;2023-05-10T13:50:56;15.80;;;9.15;;
30818;SDS011;17546;42.674;23.284;2023-05-10T13:53:22;36.67;;;11.35;;
30818;SDS011;17546;42.674;23.284;2023-05-10T13:55:47;15.13;;;9.23;;
30818;SDS011;17546;42.674;23.284;2023-05-10T13:58:13;14.82;;;9.73;;
30818;SDS011;17546;42.674;23.284;2023-05-10T14:00:40;12.90;;;8.80;;
30818;SDS011;17546;42.674;23.284;2023-05-10T14:03:05;15.40;;;9.05;;
30818;SDS011;17546;42.674;23.284;2023-05-10T14:05:32;19.42;;;10.80;;
30818;SDS011;17546;42.674;23.284;2023-05-10T14:07:57;15.05;;;9.52;;
30818;SDS011;17546;42.674;23.284;2023-05-10T14:10:23;16.25;;;9.65;;
30818;SDS011;17546;42.674;23.284;2023-05-10T14:12:54;17.75;;;9.13;;
30818;SDS011;17546;42.674;23.284;2023-05-10T14:15:19;14.82;;;8.60;;
30818;SDS011;17546;42.674;23.284;2023-05-10T14:17:45;16.58;;;9.65;;
30818;SDS011;17546;42.674;23.284;2023-05-10T14:20:11;17.05;;;10.27;;
30818;SDS011;17546;42.674;23.284;2023-05-10T14:22:36;22.02;;;9.80;;
30818;SDS011;17546;42.674;23.284;2023-05-10T14:25:02;14.30;;;8.65;;
30818;SDS011;17546;42.674;23.284;2023-05-10T14:27:27;22.02;;;9.10;;
30818;SDS011;17546;42.674;23.284;2023-05-10T14:29:53;15.38;;;9.13;;
30818;SDS011;17546;42.674;23.284;2023-05-10T14:32:20;16.10;;;9.38;;
30818;SDS011;17546;42.674;23.284;2023-05-10T14:34:45;12.23;;;8.65;;
30818;SDS011;17546;42.674;23.284;2023-05-10T14:37:11;20.67;;;9.30;;
30818;SDS011;17546;42.674;23.284;2023-05-10T14:39:39;18.98;;;9.60;;
30818;SDS011;17546;42.674;23.284;2023-05-10T14:42:05;25.50;;;14.73;;
30818;SDS011;17546;42.674;23.284;2023-05-10T14:44:43;15.18;;;9.30;;
30818;SDS011;17546;42.674;23.284;2023-05-10T14:47:08;16.52;;;10.15;;
30818;SDS011;17546;42.674;23.284;2023-05-10T14:49:33;13.55;;;8.73;;
30818;SDS011;17546;42.674;23.284;2023-05-10T14:51:59;16.52;;;8.82;;
30818;SDS011;17546;42.674;23.284;2023-05-10T14:54:24;21.55;;;10.05;;
30818;SDS011;17546;42.674;23.284;2023-05-10T14:56:50;14.45;;;9.20;;
30818;SDS011;17546;42.674;23.284;2023-05-10T14:59:15;17.52;;;10.23;;
30818;SDS011;17546;42.674;23.284;2023-05-10T15:01:40;16.85;;;9.10;;
30818;SDS011;17546;42.674;23.284;2023-05-10T15:04:07;19.45;;;10.23;;